sensor_id;sensor_type;location;lat;lon;timestamp;temperature;humidity
31837;DHT22;18401;49.344;6.240;2023-02-03T00:01:27;6.50;99.90
31837;DHT22;18401;49.344;6.240;2023-02-03T00:03:52;6.50;99.90
31837;DHT22;18401;49.344;6.240;2023-02-03T00:06:18;6.50;99.90
31837;DHT22;18401;49.344;6.240;2023-02-03T00:08:44;6.50;99.90
31837;DHT22;18401;49.344;6.240;2023-02-03T00:11:10;6.50;99.90
31837;DHT22;18401;49.344;6.240;2023-02-03T00:13:35;6.50;99.90
31837;DHT22;18401;49.344;6.240;2023-02-03T00:16:01;6.60;99.90
31837;DHT22;18401;49.344;6.240;2023-02-03T00:18:27;6.50;99.90
31837;DHT22;18401;49.344;6.240;2023-02-03T00:20:53;6.50;99.90
31837;DHT22;18401;49.344;6.240;2023-02-03T00:23:19;6.50;99.90
31837;DHT22;18401;49.344;6.240;2023-02-03T00:25:45;6.50;99.90
31837;DHT22;18401;49.344;6.240;2023-02-03T00:28:10;6.40;99.90
31837;DHT22;18401;49.344;6.240;2023-02-03T00:30:36;6.40;99.90
31837;DHT22;18401;49.344;6.240;2023-02-03T00:33:04;6.50;99.90
31837;DHT22;18401;49.344;6.240;2023-02-03T00:35:29;6.50;99.90
31837;DHT22;18401;49.344;6.240;2023-02-03T00:37:56;6.40;99.90
31837;DHT22;18401;49.344;6.240;2023-02-03T00:40:24;6.50;99.90
31837;DHT22;18401;49.344;6.240;2023-02-03T00:42:50;6.50;99.90
31837;DHT22;18401;49.344;6.240;2023-02-03T00:45:16;6.50;99.90
31837;DHT22;18401;49.344;6.240;2023-02-03T00:47:42;6.40;99.90
31837;DHT22;18401;49.344;6.240;2023-02-03T00:50:09;6.40;99.90
31837;DHT22;18401;49.344;6.240;2023-02-03T00:52:34;6.40;99.90
31837;DHT22;18401;49.344;6.240;2023-02-03T00:55:00;6.40;99.90
31837;DHT22;18401;49.344;6.240;2023-02-03T00:57:26;6.40;99.90
31837;DHT22;18401;49.344;6.240;2023-02-03T00:59:51;6.40;99.90
31837;DHT22;18401;49.344;6.240;2023-02-03T01:02:18;6.40;99.90
31837;DHT22;18401;49.344;6.240;2023-02-03T01:04:44;6.30;99.90
31837;DHT22;18401;49.344;6.240;2023-02-03T01:07:10;6.40;99.90
31837;DHT22;18401;49.344;6.240;2023-02-03T01:09:36;6.40;99.90
31837;DHT22;18401;49.344;6.240;2023-02-03T01:12:03;6.40;99.90
31837;DHT22;18401;49.344;6.240;2023-02-03T01:14:29;6.50;99.90
31837;DHT22;18401;49.344;6.240;2023-02-03T01:16:55;6.50;99.90
31837;DHT22;18401;49.344;6.240;2023-02-03T01:19:20;6.50;99.90
31837;DHT22;18401;49.344;6.240;2023-02-03T01:21:46;6.50;99.90
31837;DHT22;18401;49.344;6.240;2023-02-03T01:24:12;6.50;99.90
31837;DHT22;18401;49.344;6.240;2023-02-03T01:26:39;6.50;99.90
31837;DHT22;18401;49.344;6.240;2023-02-03T01:29:06;6.50;99.90
31837;DHT22;18401;49.344;6.240;2023-02-03T01:31:34;6.50;99.90
31837;DHT22;18401;49.344;6.240;2023-02-03T01:34:01;6.50;99.90
31837;DHT22;18401;49.344;6.240;2023-02-03T01:36:28;6.50;99.90
31837;DHT22;18401;49.344;6.240;2023-02-03T01:38:54;6.40;99.90
31837;DHT22;18401;49.344;6.240;2023-02-03T01:41:26;6.50;99.90
31837;DHT22;18401;49.344;6.240;2023-02-03T01:43:54;6.50;99.90
31837;DHT22;18401;49.344;6.240;2023-02-03T01:51:31;6.60;99.90
31837;DHT22;18401;49.344;6.240;2023-02-03T01:53:57;6.60;99.90
31837;DHT22;18401;49.344;6.240;2023-02-03T01:56:24;6.50;99.90
31837;DHT22;18401;49.344;6.240;2023-02-03T01:58:52;6.50;99.90
31837;DHT22;18401;49.344;6.240;2023-02-03T02:01:18;6.50;99.90
31837;DHT22;18401;49.344;6.240;2023-02-03T02:03:51;6.50;99.90
31837;DHT22;18401;49.344;6.240;2023-02-03T02:06:18;6.60;99.90
31837;DHT22;18401;49.344;6.240;2023-02-03T02:08:47;6.50;99.90
31837;DHT22;18401;49.344;6.240;2023-02-03T02:11:13;6.50;99.90
31837;DHT22;18401;49.344;6.240;2023-02-03T02:13:40;6.50;99.90
31837;DHT22;18401;49.344;6.240;2023-02-03T02:16:28;6.50;99.90
31837;DHT22;18401;49.344;6.240;2023-02-03T02:40:31;6.70;99.90
31837;DHT22;18401;49.344;6.240;2023-02-03T02:43:16;6.70;99.90
31837;DHT22;18401;49.344;6.240;2023-02-03T02:45:50;6.70;99.90
31837;DHT22;18401;49.344;6.240;2023-02-03T02:51:22;6.70;99.90
31837;DHT22;18401;49.344;6.240;2023-02-03T02:54:01;6.70;99.90
31837;DHT22;18401;49.344;6.240;2023-02-03T02:56:29;6.70;99.90
31837;DHT22;18401;49.344;6.240;2023-02-03T02:58:58;6.80;99.90
31837;DHT22;18401;49.344;6.240;2023-02-03T03:01:26;6.80;99.90
31837;DHT22;18401;49.344;6.240;2023-02-03T03:03:51;6.90;99.90
31837;DHT22;18401;49.344;6.240;2023-02-03T03:06:36;6.90;99.90
31837;DHT22;18401;49.344;6.240;2023-02-03T03:09:12;6.90;99.90
31837;DHT22;18401;49.344;6.240;2023-02-03T03:11:44;6.90;99.90
31837;DHT22;18401;49.344;6.240;2023-02-03T03:14:12;6.90;99.90
31837;DHT22;18401;49.344;6.240;2023-02-03T03:16:45;6.90;99.90
31837;DHT22;18401;49.344;6.240;2023-02-03T03:19:18;6.80;99.90
31837;DHT22;18401;49.344;6.240;2023-02-03T03:21:52;6.80;99.90
31837;DHT22;18401;49.344;6.240;2023-02-03T03:24:32;6.90;99.90
31837;DHT22;18401;49.344;6.240;2023-02-03T03:27:12;6.90;99.90
31837;DHT22;18401;49.344;6.240;2023-02-03T03:29:52;6.90;99.90
31837;DHT22;18401;49.344;6.240;2023-02-03T03:32:19;6.90;99.90
31837;DHT22;18401;49.344;6.240;2023-02-03T03:34:45;6.90;99.90
31837;DHT22;18401;49.344;6.240;2023-02-03T03:39:50;6.80;99.90
31837;DHT22;18401;49.344;6.240;2023-02-03T03:42:26;6.80;99.90
31837;DHT22;18401;49.344;6.240;2023-02-03T03:45:05;6.80;99.90
31837;DHT22;18401;49.344;6.240;2023-02-03T03:50:06;6.80;99.90
31837;DHT22;18401;49.344;6.240;2023-02-03T03:52:35;6.80;99.90
31837;DHT22;18401;49.344;6.240;2023-02-03T03:55:07;6.80;99.90
31837;DHT22;18401;49.344;6.240;2023-02-03T03:57:58;6.80;99.90
31837;DHT22;18401;49.344;6.240;2023-02-03T04:00:27;6.80;99.90
31837;DHT22;18401;49.344;6.240;2023-02-03T04:02:58;6.70;99.90
31837;DHT22;18401;49.344;6.240;2023-02-03T04:05:26;6.70;99.90
31837;DHT22;18401;49.344;6.240;2023-02-03T04:07:52;6.80;99.90
31837;DHT22;18401;49.344;6.240;2023-02-03T04:10:35;6.70;99.90
31837;DHT22;18401;49.344;6.240;2023-02-03T04:13:01;6.70;99.90
31837;DHT22;18401;49.344;6.240;2023-02-03T04:15:28;6.70;99.90
31837;DHT22;18401;49.344;6.240;2023-02-03T04:17:54;6.70;99.90
31837;DHT22;18401;49.344;6.240;2023-02-03T04:20:24;6.70;99.90
31837;DHT22;18401;49.344;6.240;2023-02-03T04:22:50;6.70;99.90
31837;DHT22;18401;49.344;6.240;2023-02-03T04:25:16;6.80;99.90
31837;DHT22;18401;49.344;6.240;2023-02-03T04:27:41;6.80;99.90
31837;DHT22;18401;49.344;6.240;2023-02-03T04:30:08;6.70;99.90
31837;DHT22;18401;49.344;6.240;2023-02-03T04:32:33;6.70;99.90
31837;DHT22;18401;49.344;6.240;2023-02-03T04:35:00;6.70;99.90
31837;DHT22;18401;49.344;6.240;2023-02-03T04:37:26;6.70;99.90
31837;DHT22;18401;49.344;6.240;2023-02-03T04:39:53;6.70;99.90
31837;DHT22;18401;49.344;6.240;2023-02-03T04:42:20;6.80;99.90
31837;DHT22;18401;49.344;6.240;2023-02-03T04:44:45;6.80;99.90
31837;DHT22;18401;49.344;6.240;2023-02-03T04:47:11;6.80;99.90
31837;DHT22;18401;49.344;6.240;2023-02-03T04:49:37;6.80;99.90
31837;DHT22;18401;49.344;6.240;2023-02-03T04:52:03;6.80;99.90
31837;DHT22;18401;49.344;6.240;2023-02-03T04:54:29;6.80;99.90
31837;DHT22;18401;49.344;6.240;2023-02-03T04:56:54;6.80;99.90
31837;DHT22;18401;49.344;6.240;2023-02-03T04:59:20;6.70;99.90
31837;DHT22;18401;49.344;6.240;2023-02-03T05:01:46;6.70;99.90
31837;DHT22;18401;49.344;6.240;2023-02-03T05:04:11;6.70;99.90
31837;DHT22;18401;49.344;6.240;2023-02-03T05:06:37;6.70;99.90
31837;DHT22;18401;49.344;6.240;2023-02-03T05:09:03;6.70;99.90
31837;DHT22;18401;49.344;6.240;2023-02-03T05:11:29;6.70;99.90
31837;DHT22;18401;49.344;6.240;2023-02-03T05:13:54;6.60;99.90
31837;DHT22;18401;49.344;6.240;2023-02-03T05:16:20;6.60;99.90
31837;DHT22;18401;49.344;6.240;2023-02-03T05:18:46;6.60;99.90
31837;DHT22;18401;49.344;6.240;2023-02-03T05:21:11;6.60;99.90
31837;DHT22;18401;49.344;6.240;2023-02-03T05:23:37;6.70;99.90
31837;DHT22;18401;49.344;6.240;2023-02-03T05:26:03;6.70;99.90
31837;DHT22;18401;49.344;6.240;2023-02-03T05:28:29;6.70;99.90
31837;DHT22;18401;49.344;6.240;2023-02-03T05:30:57;6.70;99.90
31837;DHT22;18401;49.344;6.240;2023-02-03T05:33:23;6.80;99.90
31837;DHT22;18401;49.344;6.240;2023-02-03T05:35:49;6.70;99.90
31837;DHT22;18401;49.344;6.240;2023-02-03T05:38:15;6.80;99.90
31837;DHT22;18401;49.344;6.240;2023-02-03T05:40:40;6.70;99.90
31837;DHT22;18401;49.344;6.240;2023-02-03T05:43:25;6.70;99.90
31837;DHT22;18401;49.344;6.240;2023-02-03T05:45:51;6.70;99.90
31837;DHT22;18401;49.344;6.240;2023-02-03T05:48:16;6.70;99.90
31837;DHT22;18401;49.344;6.240;2023-02-03T05:50:42;6.70;99.90
31837;DHT22;18401;49.344;6.240;2023-02-03T05:53:08;6.70;99.90
31837;DHT22;18401;49.344;6.240;2023-02-03T05:55:34;6.70;99.90
31837;DHT22;18401;49.344;6.240;2023-02-03T05:58:00;6.60;99.90
31837;DHT22;18401;49.344;6.240;2023-02-03T06:00:26;6.60;99.90
31837;DHT22;18401;49.344;6.240;2023-02-03T06:02:57;6.60;99.90
31837;DHT22;18401;49.344;6.240;2023-02-03T06:05:23;6.60;99.90
31837;DHT22;18401;49.344;6.240;2023-02-03T06:07:50;6.60;99.90
31837;DHT22;18401;49.344;6.240;2023-02-03T06:10:16;6.60;99.90
31837;DHT22;18401;49.344;6.240;2023-02-03T06:12:42;6.70;99.90
31837;DHT22;18401;49.344;6.240;2023-02-03T06:15:09;6.60;99.90
31837;DHT22;18401;49.344;6.240;2023-02-03T06:17:35;6.70;99.90
31837;DHT22;18401;49.344;6.240;2023-02-03T06:20:05;6.60;99.90
31837;DHT22;18401;49.344;6.240;2023-02-03T06:22:31;6.60;99.90
31837;DHT22;18401;49.344;6.240;2023-02-03T06:24:57;6.60;99.90
31837;DHT22;18401;49.344;6.240;2023-02-03T06:27:23;6.70;99.90
31837;DHT22;18401;49.344;6.240;2023-02-03T06:29:49;6.70;99.90
31837;DHT22;18401;49.344;6.240;2023-02-03T06:32:15;6.70;99.90
31837;DHT22;18401;49.344;6.240;2023-02-03T06:34:40;6.70;99.90
31837;DHT22;18401;49.344;6.240;2023-02-03T06:37:06;6.70;99.90
31837;DHT22;18401;49.344;6.240;2023-02-03T06:39:32;6.70;99.90
31837;DHT22;18401;49.344;6.240;2023-02-03T06:41:57;6.80;99.90
31837;DHT22;18401;49.344;6.240;2023-02-03T06:44:23;6.70;99.90
31837;DHT22;18401;49.344;6.240;2023-02-03T06:46:49;6.80;99.90
31837;DHT22;18401;49.344;6.240;2023-02-03T06:49:15;6.80;99.90
31837;DHT22;18401;49.344;6.240;2023-02-03T06:51:45;6.80;99.90
31837;DHT22;18401;49.344;6.240;2023-02-03T06:54:11;6.80;99.90
31837;DHT22;18401;49.344;6.240;2023-02-03T06:56:37;6.80;99.90
31837;DHT22;18401;49.344;6.240;2023-02-03T06:59:03;6.80;99.90
31837;DHT22;18401;49.344;6.240;2023-02-03T07:01:29;6.80;99.90
31837;DHT22;18401;49.344;6.240;2023-02-03T07:03:55;6.80;99.90
31837;DHT22;18401;49.344;6.240;2023-02-03T07:06:26;6.80;99.90
31837;DHT22;18401;49.344;6.240;2023-02-03T07:08:54;6.80;99.90
31837;DHT22;18401;49.344;6.240;2023-02-03T07:11:20;6.80;99.90
31837;DHT22;18401;49.344;6.240;2023-02-03T07:13:46;6.80;99.90
31837;DHT22;18401;49.344;6.240;2023-02-03T07:16:12;6.80;99.90
31837;DHT22;18401;49.344;6.240;2023-02-03T07:18:38;6.80;99.90
31837;DHT22;18401;49.344;6.240;2023-02-03T07:21:04;6.90;99.90
31837;DHT22;18401;49.344;6.240;2023-02-03T07:23:30;6.90;99.90
31837;DHT22;18401;49.344;6.240;2023-02-03T07:26:00;6.90;99.90
31837;DHT22;18401;49.344;6.240;2023-02-03T07:28:27;6.90;99.90
31837;DHT22;18401;49.344;6.240;2023-02-03T07:30:53;6.90;99.90
31837;DHT22;18401;49.344;6.240;2023-02-03T07:33:18;6.80;99.90
31837;DHT22;18401;49.344;6.240;2023-02-03T07:35:51;6.90;99.90
31837;DHT22;18401;49.344;6.240;2023-02-03T07:38:16;7.00;99.90
31837;DHT22;18401;49.344;6.240;2023-02-03T07:40:42;7.00;99.90
31837;DHT22;18401;49.344;6.240;2023-02-03T07:43:08;6.90;99.90
31837;DHT22;18401;49.344;6.240;2023-02-03T07:45:33;6.90;99.90
31837;DHT22;18401;49.344;6.240;2023-02-03T07:47:59;6.80;99.90
31837;DHT22;18401;49.344;6.240;2023-02-03T07:50:25;6.80;99.90
31837;DHT22;18401;49.344;6.240;2023-02-03T07:52:50;6.80;99.90
31837;DHT22;18401;49.344;6.240;2023-02-03T07:55:16;6.80;99.90
31837;DHT22;18401;49.344;6.240;2023-02-03T07:57:42;6.80;99.90
31837;DHT22;18401;49.344;6.240;2023-02-03T08:00:11;6.90;99.90
31837;DHT22;18401;49.344;6.240;2023-02-03T08:02:37;6.90;99.90
31837;DHT22;18401;49.344;6.240;2023-02-03T08:05:02;6.80;99.90
31837;DHT22;18401;49.344;6.240;2023-02-03T08:07:28;6.80;99.90
31837;DHT22;18401;49.344;6.240;2023-02-03T08:09:53;6.80;99.90
31837;DHT22;18401;49.344;6.240;2023-02-03T08:12:19;6.80;99.90
31837;DHT22;18401;49.344;6.240;2023-02-03T08:14:45;6.80;99.90
31837;DHT22;18401;49.344;6.240;2023-02-03T08:17:11;6.80;99.90
31837;DHT22;18401;49.344;6.240;2023-02-03T08:19:36;6.90;99.90
31837;DHT22;18401;49.344;6.240;2023-02-03T08:22:02;6.90;99.90
31837;DHT22;18401;49.344;6.240;2023-02-03T08:24:28;6.90;99.90
31837;DHT22;18401;49.344;6.240;2023-02-03T08:26:53;6.90;99.90
31837;DHT22;18401;49.344;6.240;2023-02-03T08:29:19;7.00;99.90
31837;DHT22;18401;49.344;6.240;2023-02-03T08:31:45;7.00;99.90
31837;DHT22;18401;49.344;6.240;2023-02-03T08:34:14;7.00;99.90
31837;DHT22;18401;49.344;6.240;2023-02-03T08:36:39;7.00;99.90
31837;DHT22;18401;49.344;6.240;2023-02-03T08:39:06;6.90;99.90
31837;DHT22;18401;49.344;6.240;2023-02-03T08:41:32;6.90;99.90
31837;DHT22;18401;49.344;6.240;2023-02-03T08:43:59;6.90;99.90
31837;DHT22;18401;49.344;6.240;2023-02-03T08:46:24;6.80;99.90
31837;DHT22;18401;49.344;6.240;2023-02-03T08:48:50;6.80;99.90
31837;DHT22;18401;49.344;6.240;2023-02-03T08:51:17;6.90;99.90
31837;DHT22;18401;49.344;6.240;2023-02-03T08:53:44;6.80;99.90
31837;DHT22;18401;49.344;6.240;2023-02-03T08:56:10;6.80;99.90
31837;DHT22;18401;49.344;6.240;2023-02-03T08:58:37;6.80;99.90
31837;DHT22;18401;49.344;6.240;2023-02-03T09:01:11;6.80;99.90
31837;DHT22;18401;49.344;6.240;2023-02-03T09:03:37;6.80;99.90
31837;DHT22;18401;49.344;6.240;2023-02-03T09:06:04;6.80;99.90
31837;DHT22;18401;49.344;6.240;2023-02-03T09:08:30;6.90;99.90
31837;DHT22;18401;49.344;6.240;2023-02-03T09:10:56;6.90;99.90
31837;DHT22;18401;49.344;6.240;2023-02-03T09:13:21;7.00;99.90
31837;DHT22;18401;49.344;6.240;2023-02-03T09:15:47;7.00;99.90
31837;DHT22;18401;49.344;6.240;2023-02-03T09:18:13;7.10;99.90
31837;DHT22;18401;49.344;6.240;2023-02-03T09:20:39;7.10;99.90
31837;DHT22;18401;49.344;6.240;2023-02-03T09:23:04;7.20;99.90
31837;DHT22;18401;49.344;6.240;2023-02-03T09:25:30;7.20;99.90
31837;DHT22;18401;49.344;6.240;2023-02-03T09:27:57;7.20;99.90
31837;DHT22;18401;49.344;6.240;2023-02-03T09:30:22;7.20;99.90
31837;DHT22;18401;49.344;6.240;2023-02-03T09:32:52;7.40;99.90
31837;DHT22;18401;49.344;6.240;2023-02-03T09:35:19;7.50;99.90
31837;DHT22;18401;49.344;6.240;2023-02-03T09:37:45;7.40;99.90
31837;DHT22;18401;49.344;6.240;2023-02-03T09:40:19;7.40;99.90
31837;DHT22;18401;49.344;6.240;2023-02-03T09:43:01;7.30;99.90
31837;DHT22;18401;49.344;6.240;2023-02-03T09:45:29;7.30;99.90
31837;DHT22;18401;49.344;6.240;2023-02-03T09:48:12;7.30;99.90
31837;DHT22;18401;49.344;6.240;2023-02-03T09:50:40;7.40;99.90
31837;DHT22;18401;49.344;6.240;2023-02-03T09:53:33;7.30;99.90
31837;DHT22;18401;49.344;6.240;2023-02-03T09:56:02;7.30;99.90
31837;DHT22;18401;49.344;6.240;2023-02-03T09:58:32;7.30;99.90
31837;DHT22;18401;49.344;6.240;2023-02-03T10:00:59;7.30;99.90
31837;DHT22;18401;49.344;6.240;2023-02-03T10:19:20;7.10;99.90
31837;DHT22;18401;49.344;6.240;2023-02-03T10:21:50;7.20;99.90
31837;DHT22;18401;49.344;6.240;2023-02-03T10:27:00;7.30;99.90
31837;DHT22;18401;49.344;6.240;2023-02-03T10:29:34;7.40;99.90
31837;DHT22;18401;49.344;6.240;2023-02-03T10:32:01;7.40;99.90
31837;DHT22;18401;49.344;6.240;2023-02-03T10:34:27;7.30;99.90
31837;DHT22;18401;49.344;6.240;2023-02-03T10:36:55;7.30;99.90
31837;DHT22;18401;49.344;6.240;2023-02-03T10:41:49;7.30;99.90
31837;DHT22;18401;49.344;6.240;2023-02-03T10:44:15;7.40;99.90
31837;DHT22;18401;49.344;6.240;2023-02-03T10:46:42;7.30;99.90
31837;DHT22;18401;49.344;6.240;2023-02-03T10:49:12;7.40;99.90
31837;DHT22;18401;49.344;6.240;2023-02-03T10:51:50;7.40;99.90
31837;DHT22;18401;49.344;6.240;2023-02-03T10:54:35;7.50;99.90
31837;DHT22;18401;49.344;6.240;2023-02-03T10:57:10;7.50;99.90
31837;DHT22;18401;49.344;6.240;2023-02-03T10:59:40;7.50;99.90
31837;DHT22;18401;49.344;6.240;2023-02-03T11:02:09;7.50;99.90
31837;DHT22;18401;49.344;6.240;2023-02-03T11:04:35;7.40;99.90
31837;DHT22;18401;49.344;6.240;2023-02-03T11:07:06;7.40;99.90
31837;DHT22;18401;49.344;6.240;2023-02-03T11:09:47;7.50;99.90
31837;DHT22;18401;49.344;6.240;2023-02-03T11:12:17;7.50;99.90
31837;DHT22;18401;49.344;6.240;2023-02-03T11:14:50;7.50;99.90
31837;DHT22;18401;49.344;6.240;2023-02-03T11:17:20;7.60;99.90
31837;DHT22;18401;49.344;6.240;2023-02-03T11:19:54;7.70;99.90
31837;DHT22;18401;49.344;6.240;2023-02-03T11:22:37;7.60;99.90
31837;DHT22;18401;49.344;6.240;2023-02-03T11:25:19;7.70;99.90
31837;DHT22;18401;49.344;6.240;2023-02-03T11:27:46;7.70;99.90
31837;DHT22;18401;49.344;6.240;2023-02-03T11:30:25;7.80;99.90
31837;DHT22;18401;49.344;6.240;2023-02-03T11:32:52;7.80;99.90
31837;DHT22;18401;49.344;6.240;2023-02-03T11:35:25;7.90;99.90
31837;DHT22;18401;49.344;6.240;2023-02-03T11:37:53;7.90;99.90
31837;DHT22;18401;49.344;6.240;2023-02-03T11:43:09;7.90;99.90
31837;DHT22;18401;49.344;6.240;2023-02-03T11:45:43;7.90;99.90
31837;DHT22;18401;49.344;6.240;2023-02-03T11:59:26;8.10;99.90
31837;DHT22;18401;49.344;6.240;2023-02-03T12:26:29;8.20;99.90
31837;DHT22;18401;49.344;6.240;2023-02-03T12:29:01;8.30;99.90
31837;DHT22;18401;49.344;6.240;2023-02-03T12:42:35;8.30;99.90
31837;DHT22;18401;49.344;6.240;2023-02-03T12:45:04;8.30;99.90
31837;DHT22;18401;49.344;6.240;2023-02-03T12:47:59;8.30;99.90
31837;DHT22;18401;49.344;6.240;2023-02-03T12:50:38;8.30;99.90
31837;DHT22;18401;49.344;6.240;2023-02-03T12:53:40;8.30;99.90
31837;DHT22;18401;49.344;6.240;2023-02-03T12:56:24;8.30;99.90
31837;DHT22;18401;49.344;6.240;2023-02-03T12:58:56;8.30;99.90
31837;DHT22;18401;49.344;6.240;2023-02-03T13:01:30;8.30;99.90
31837;DHT22;18401;49.344;6.240;2023-02-03T13:07:10;8.30;99.90
31837;DHT22;18401;49.344;6.240;2023-02-03T13:10:00;8.30;99.90
31837;DHT22;18401;49.344;6.240;2023-02-03T13:12:41;8.30;99.90
31837;DHT22;18401;49.344;6.240;2023-02-03T13:15:39;8.30;99.90
31837;DHT22;18401;49.344;6.240;2023-02-03T13:18:40;8.40;99.90
31837;DHT22;18401;49.344;6.240;2023-02-03T13:21:10;8.40;99.90
31837;DHT22;18401;49.344;6.240;2023-02-03T13:23:40;8.40;99.90
31837;DHT22;18401;49.344;6.240;2023-02-03T13:34:38;8.50;99.90
31837;DHT22;18401;49.344;6.240;2023-02-03T13:42:51;8.50;99.90
31837;DHT22;18401;49.344;6.240;2023-02-03T13:45:25;8.50;99.90
31837;DHT22;18401;49.344;6.240;2023-02-03T13:47:54;8.60;99.90
31837;DHT22;18401;49.344;6.240;2023-02-03T13:50:22;8.50;99.90
31837;DHT22;18401;49.344;6.240;2023-02-03T13:53:07;8.50;99.90
31837;DHT22;18401;49.344;6.240;2023-02-03T13:55:43;8.50;99.90
31837;DHT22;18401;49.344;6.240;2023-02-03T13:58:31;8.50;99.90
31837;DHT22;18401;49.344;6.240;2023-02-03T14:01:26;8.50;99.90
31837;DHT22;18401;49.344;6.240;2023-02-03T14:03:52;8.50;99.90
31837;DHT22;18401;49.344;6.240;2023-02-03T14:09:33;8.60;99.90
31837;DHT22;18401;49.344;6.240;2023-02-03T14:25:26;8.50;99.90
31837;DHT22;18401;49.344;6.240;2023-02-03T14:27:59;8.50;99.90
31837;DHT22;18401;49.344;6.240;2023-02-03T14:30:26;8.50;99.90
31837;DHT22;18401;49.344;6.240;2023-02-03T14:32:59;8.50;99.90
31837;DHT22;18401;49.344;6.240;2023-02-03T14:38:00;8.50;99.90
31837;DHT22;18401;49.344;6.240;2023-02-03T14:40:34;8.50;99.90
31837;DHT22;18401;49.344;6.240;2023-02-03T14:49:25;8.50;99.90
31837;DHT22;18401;49.344;6.240;2023-02-03T14:52:17;8.50;99.90
31837;DHT22;18401;49.344;6.240;2023-02-03T14:57:49;8.40;99.90
31837;DHT22;18401;49.344;6.240;2023-02-03T15:05:42;8.40;99.90
31837;DHT22;18401;49.344;6.240;2023-02-03T15:13:46;8.30;99.90
31837;DHT22;18401;49.344;6.240;2023-02-03T15:16:18;8.30;99.90
31837;DHT22;18401;49.344;6.240;2023-02-03T15:18:45;8.30;99.90
31837;DHT22;18401;49.344;6.240;2023-02-03T15:21:17;8.40;99.90
31837;DHT22;18401;49.344;6.240;2023-02-03T15:23:45;8.30;99.90
31837;DHT22;18401;49.344;6.240;2023-02-03T15:26:22;8.30;99.90
31837;DHT22;18401;49.344;6.240;2023-02-03T15:28:56;8.30;99.90
31837;DHT22;18401;49.344;6.240;2023-02-03T15:34:02;8.30;99.90
31837;DHT22;18401;49.344;6.240;2023-02-03T15:36:45;8.30;99.90
31837;DHT22;18401;49.344;6.240;2023-02-03T15:41:56;8.30;99.90
31837;DHT22;18401;49.344;6.240;2023-02-03T15:44:31;8.30;99.90
31837;DHT22;18401;49.344;6.240;2023-02-03T15:47:00;8.20;99.90
31837;DHT22;18401;49.344;6.240;2023-02-03T15:49:32;8.20;99.90
31837;DHT22;18401;49.344;6.240;2023-02-03T15:52:13;8.20;99.90
31837;DHT22;18401;49.344;6.240;2023-02-03T15:54:46;8.20;99.90
31837;DHT22;18401;49.344;6.240;2023-02-03T15:57:22;8.30;99.90
31837;DHT22;18401;49.344;6.240;2023-02-03T15:59:55;8.20;99.90
31837;DHT22;18401;49.344;6.240;2023-02-03T16:02:30;8.20;99.90
31837;DHT22;18401;49.344;6.240;2023-02-03T16:05:05;8.30;99.90
31837;DHT22;18401;49.344;6.240;2023-02-03T16:07:36;8.30;99.90
31837;DHT22;18401;49.344;6.240;2023-02-03T16:10:02;8.30;99.90
31837;DHT22;18401;49.344;6.240;2023-02-03T16:12:30;8.20;99.90
31837;DHT22;18401;49.344;6.240;2023-02-03T16:14:58;8.20;99.90
31837;DHT22;18401;49.344;6.240;2023-02-03T16:17:29;8.20;99.90
31837;DHT22;18401;49.344;6.240;2023-02-03T16:22:45;8.20;99.90
31837;DHT22;18401;49.344;6.240;2023-02-03T16:27:44;8.10;99.90
31837;DHT22;18401;49.344;6.240;2023-02-03T16:35:57;8.10;99.90
31837;DHT22;18401;49.344;6.240;2023-02-03T16:38:49;8.10;99.90
31837;DHT22;18401;49.344;6.240;2023-02-03T16:41:33;8.10;99.90
31837;DHT22;18401;49.344;6.240;2023-02-03T16:44:17;8.10;99.90
